Time;durP1;ratioP1;P1;durP2;ratioP2;P2;SDS_P1;SDS_P2;PMS_P1;PMS_P2;Temp;Humidity;BMP_temperature;BMP_pressure;BME280_temperature;BME280_humidity;BME280_pressure;Samples;Min_cycle;Max_cycle;Signal;HPM_P1;HPM_P2
2020/12/30 00:00:27;;;;;;;9.00;7.70;;;3.50;1.00;;;;;;5070778;28;20407;-64
2020/12/30 00:02:53;;;;;;;9.52;7.82;;;3.40;1.00;;;;;;5070863;28;20423;-64
2020/12/30 00:05:19;;;;;;;10.75;8.70;;;3.30;1.00;;;;;;5070536;28;20415;-64
2020/12/30 00:07:45;;;;;;;10.38;8.27;;;3.30;1.00;;;;;;5070362;28;20426;-64
2020/12/30 00:10:13;;;;;;;8.52;7.43;;;3.20;1.00;;;;;;5070572;28;20411;-64
2020/12/30 00:12:40;;;;;;;10.98;7.80;;;3.10;1.00;;;;;;5070712;28;20415;-64
2020/12/30 00:15:07;;;;;;;10.52;8.40;;;3.00;1.00;;;;;;5070612;28;20781;-64
2020/12/30 00:17:34;;;;;;;9.98;7.82;;;3.00;1.00;;;;;;5070764;28;20427;-64
2020/12/30 00:20:00;;;;;;;10.02;8.35;;;2.80;1.00;;;;;;5070347;28;20419;-64
2020/12/30 00:22:26;;;;;;;11.55;8.20;;;2.70;1.00;;;;;;5070945;28;20416;-64
2020/12/30 00:24:52;;;;;;;12.02;8.43;;;2.60;1.00;;;;;;5069923;28;20411;-64
2020/12/30 00:27:18;;;;;;;11.30;8.87;;;2.60;1.00;;;;;;5070778;28;20483;-64
2020/12/30 00:29:45;;;;;;;10.90;8.60;;;2.60;1.00;;;;;;5070701;28;20423;-64
2020/12/30 00:32:12;;;;;;;10.35;8.80;;;2.60;1.00;;;;;;5070362;28;20438;-64
2020/12/30 00:34:40;;;;;;;10.40;8.85;;;2.50;1.00;;;;;;5070272;28;20411;-64
2020/12/30 00:37:06;;;;;;;12.70;9.60;;;2.40;1.00;;;;;;5070083;28;20442;-64
2020/12/30 00:39:32;;;;;;;13.03;9.03;;;2.40;1.00;;;;;;5070470;28;20422;-64
2020/12/30 00:41:58;;;;;;;12.20;9.35;;;2.30;1.00;;;;;;5070751;28;20741;-64
2020/12/30 00:44:24;;;;;;;13.35;9.27;;;2.30;1.00;;;;;;5070216;28;20415;-64
2020/12/30 00:46:52;;;;;;;13.67;9.57;;;2.30;1.00;;;;;;5070431;28;20884;-64
2020/12/30 00:49:18;;;;;;;14.10;8.80;;;2.30;1.00;;;;;;5070218;28;20887;-64
2020/12/30 00:51:49;;;;;;;12.53;9.40;;;2.30;1.00;;;;;;5070344;28;20420;-64
2020/12/30 00:54:15;;;;;;;11.13;9.23;;;2.20;1.00;;;;;;5069887;28;20411;-64
2020/12/30 00:56:41;;;;;;;13.30;9.90;;;2.20;1.00;;;;;;5070229;28;20812;-64
2020/12/30 00:59:07;;;;;;;12.02;9.45;;;2.30;1.00;;;;;;5070233;28;20419;-64
2020/12/30 01:01:33;;;;;;;13.37;9.87;;;2.30;1.00;;;;;;5070144;28;20407;-64
2020/12/30 01:04:00;;;;;;;13.93;10.38;;;2.40;1.00;;;;;;5073307;28;20465;-64
2020/12/30 01:06:27;;;;;;;10.82;9.05;;;2.30;1.00;;;;;;5073665;28;20876;-64
2020/12/30 01:08:53;;;;;;;15.90;10.00;;;2.40;1.00;;;;;;5074032;28;20882;-64
2020/12/30 01:11:24;;;;;;;14.48;9.55;;;2.40;1.00;;;;;;5074008;28;20880;-64
2020/12/30 01:13:50;;;;;;;13.27;10.33;;;2.40;1.00;;;;;;5073482;28;20407;-64
2020/12/30 01:16:16;;;;;;;17.00;9.95;;;2.50;1.00;;;;;;5073630;28;20426;-64
2020/12/30 01:18:43;;;;;;;12.73;10.00;;;2.60;1.00;;;;;;5073660;28;20502;-64
2020/12/30 01:21:09;;;;;;;12.63;9.48;;;2.60;1.00;;;;;;5073481;28;20427;-64
2020/12/30 01:23:35;;;;;;;15.25;10.00;;;2.70;1.00;;;;;;5073739;28;20422;-64
2020/12/30 01:26:02;;;;;;;15.10;9.63;;;2.70;1.00;;;;;;5073443;28;20408;-64
2020/12/30 01:28:28;;;;;;;13.50;10.30;;;2.70;1.00;;;;;;5073706;28;20779;-64
2020/12/30 01:30:54;;;;;;;12.05;10.07;;;2.70;1.00;;;;;;5073411;28;20415;-64
2020/12/30 01:33:20;;;;;;;12.77;10.20;;;2.60;1.00;;;;;;5073095;28;20787;-64
2020/12/30 01:35:46;;;;;;;16.40;10.88;;;2.60;1.00;;;;;;5073344;28;20473;-64
2020/12/30 01:38:13;;;;;;;13.10;9.80;;;2.60;1.00;;;;;;5073300;28;20415;-64
2020/12/30 01:40:39;;;;;;;11.35;9.70;;;2.60;1.00;;;;;;5073481;28;20412;-63
2020/12/30 01:43:05;;;;;;;13.85;10.20;;;2.60;1.00;;;;;;5073360;28;20433;-64
2020/12/30 01:45:31;;;;;;;11.75;9.70;;;2.60;1.00;;;;;;5073076;28;20464;-64
2020/12/30 01:47:57;;;;;;;12.77;9.70;;;2.60;1.00;;;;;;5073235;28;20407;-64
2020/12/30 01:50:24;;;;;;;12.48;9.80;;;2.50;1.00;;;;;;5072974;28;20411;-64
2020/12/30 01:52:50;;;;;;;14.40;11.05;;;2.40;1.00;;;;;;5073324;28;20411;-64
2020/12/30 01:55:23;;;;;;;14.07;10.50;;;2.40;1.00;;;;;;5072866;28;20828;-64
2020/12/30 01:57:49;;;;;;;16.00;11.33;;;2.30;1.00;;;;;;5072951;28;20507;-64
2020/12/30 02:00:15;;;;;;;14.57;10.73;;;2.40;1.00;;;;;;5073178;28;20412;-63
2020/12/30 02:02:48;;;;;;;12.68;10.18;;;2.30;1.00;;;;;;5072420;28;20714;-64
2020/12/30 02:05:19;;;;;;;17.00;11.15;;;2.30;1.00;;;;;;5072998;28;20815;-64
2020/12/30 02:07:45;;;;;;;15.95;11.32;;;2.20;1.00;;;;;;5073110;28;20412;-64
2020/12/30 02:10:12;;;;;;;15.35;10.98;;;2.20;1.00;;;;;;5072912;28;20418;-64
2020/12/30 02:12:40;;;;;;;16.67;11.43;;;2.20;1.00;;;;;;5072489;28;20416;-64
2020/12/30 02:15:06;;;;;;;14.60;11.13;;;2.10;1.00;;;;;;5072131;28;20892;-64
2020/12/30 02:17:32;;;;;;;13.80;10.50;;;2.10;1.00;;;;;;5072501;28;20473;-64
2020/12/30 02:19:58;;;;;;;17.23;11.60;;;2.20;1.00;;;;;;5072915;28;20486;-64
2020/12/30 02:22:29;;;;;;;13.93;10.82;;;2.10;1.00;;;;;;5072611;28;20964;-64
2020/12/30 02:24:56;;;;;;;13.52;10.77;;;2.10;1.00;;;;;;5072316;28;20412;-64
2020/12/30 02:27:22;;;;;;;16.02;10.70;;;2.20;1.00;;;;;;5072387;28;20408;-63
2020/12/30 02:29:48;;;;;;;13.55;9.98;;;2.10;1.00;;;;;;5072306;28;20423;-63
2020/12/30 02:32:14;;;;;;;15.13;11.30;;;2.10;1.00;;;;;;5072328;28;20863;-64
2020/12/30 02:34:40;;;;;;;14.52;11.30;;;2.10;1.00;;;;;;5072257;28;20415;-63
2020/12/30 02:37:06;;;;;;;12.35;10.00;;;2.10;1.00;;;;;;5072287;28;20788;-64
2020/12/30 02:39:33;;;;;;;18.20;11.93;;;2.10;1.00;;;;;;5072242;28;20423;-63
2020/12/30 02:41:59;;;;;;;16.17;11.85;;;2.20;1.00;;;;;;5072507;28;20423;-64
2020/12/30 02:44:25;;;;;;;14.40;11.60;;;2.10;1.00;;;;;;5073232;28;20411;-63
2020/12/30 02:46:51;;;;;;;15.70;10.80;;;2.10;1.00;;;;;;5072076;28;20411;-64
2020/12/30 02:49:18;;;;;;;15.68;11.25;;;2.10;18.40;;;;;;5072211;28;20419;-63
2020/12/30 02:51:44;;;;;;;15.80;10.77;;;2.10;49.20;;;;;;5071962;28;20502;-64
2020/12/30 02:54:10;;;;;;;16.25;11.48;;;2.20;61.20;;;;;;5071823;28;20418;-64
2020/12/30 02:56:36;;;;;;;19.00;13.25;;;2.20;68.80;;;;;;5071783;28;20431;-64
2020/12/30 02:59:04;;;;;;;20.50;13.73;;;2.10;77.70;;;;;;5071642;28;20523;-63
2020/12/30 03:01:30;;;;;;;15.90;12.65;;;2.10;99.90;;;;;;5072042;28;20514;-64
2020/12/30 03:03:56;;;;;;;19.52;13.10;;;2.20;99.90;;;;;;5071387;28;20834;-64
2020/12/30 03:06:24;;;;;;;19.40;13.30;;;2.30;99.90;;;;;;5071941;28;20456;-64
2020/12/30 03:08:50;;;;;;;17.25;12.80;;;2.30;99.90;;;;;;5071825;28;20415;-63
2020/12/30 03:11:17;;;;;;;17.42;12.45;;;2.40;99.90;;;;;;5071506;28;20423;-64
2020/12/30 03:13:43;;;;;;;19.80;13.13;;;2.30;99.90;;;;;;5071288;28;20437;-64
2020/12/30 03:16:10;;;;;;;16.92;13.10;;;2.40;99.90;;;;;;5071285;28;20411;-64
2020/12/30 03:18:36;;;;;;;17.85;13.38;;;2.50;99.90;;;;;;5071788;28;20412;-63
2020/12/30 03:21:02;;;;;;;18.70;13.70;;;2.50;99.90;;;;;;5071608;28;20413;-64
2020/12/30 03:23:28;;;;;;;18.15;12.80;;;2.50;99.90;;;;;;5071319;28;20407;-64
2020/12/30 03:25:54;;;;;;;20.83;13.27;;;2.50;99.90;;;;;;5070725;28;20416;-64
2020/12/30 03:28:20;;;;;;;17.00;13.07;;;2.50;99.90;;;;;;5071059;28;20438;-64
2020/12/30 03:30:46;;;;;;;19.00;14.60;;;2.60;99.90;;;;;;5071408;28;20416;-64
2020/12/30 03:33:13;;;;;;;18.63;13.30;;;2.60;99.90;;;;;;5071329;28;20418;-63
2020/12/30 03:35:39;;;;;;;20.48;13.93;;;2.70;99.90;;;;;;5070983;28;20784;-64
2020/12/30 03:38:05;;;;;;;18.25;13.43;;;2.70;99.90;;;;;;5071084;28;20419;-64
2020/12/30 03:40:31;;;;;;;18.73;13.60;;;2.70;99.90;;;;;;5070819;28;20415;-64
2020/12/30 03:42:57;;;;;;;19.90;13.90;;;2.70;99.90;;;;;;5071019;28;20887;-64
2020/12/30 03:45:24;;;;;;;17.77;14.30;;;2.80;99.90;;;;;;5070857;28;20461;-63
2020/12/30 03:47:50;;;;;;;16.95;13.00;;;2.80;99.90;;;;;;5070923;28;20834;-64
2020/12/30 03:50:17;;;;;;;21.50;14.43;;;2.80;99.90;;;;;;5070969;28;20416;-64
2020/12/30 03:52:43;;;;;;;17.67;13.37;;;2.90;99.90;;;;;;5070714;28;20442;-64
2020/12/30 03:55:09;;;;;;;16.98;13.50;;;2.90;99.90;;;;;;5070508;28;20420;-64
2020/12/30 03:57:35;;;;;;;20.38;14.90;;;2.80;99.90;;;;;;5070647;28;20480;-64
2020/12/30 04:00:01;;;;;;;18.17;13.30;;;2.80;99.90;;;;;;5070964;28;20504;-64
2020/12/30 04:02:27;;;;;;;19.65;14.35;;;2.90;99.90;;;;;;5070912;28;20785;-64
2020/12/30 04:04:53;;;;;;;16.95;13.35;;;2.90;99.90;;;;;;5070457;28;20412;-64
2020/12/30 04:07:20;;;;;;;17.38;13.90;;;2.90;99.90;;;;;;5070797;28;20461;-64
2020/12/30 04:09:46;;;;;;;18.70;14.18;;;2.90;99.90;;;;;;5070583;28;20419;-64
2020/12/30 04:12:12;;;;;;;20.15;13.85;;;2.80;99.90;;;;;;5070755;28;20418;-64
2020/12/30 04:14:38;;;;;;;18.38;13.48;;;2.70;99.90;;;;;;5070421;28;20415;-64
2020/12/30 04:17:05;;;;;;;17.83;13.30;;;2.70;99.90;;;;;;5070662;28;20424;-64
2020/12/30 04:19:31;;;;;;;21.25;15.55;;;2.70;99.90;;;;;;5070966;28;20777;-64
2020/12/30 04:21:57;;;;;;;23.17;15.63;;;2.70;99.90;;;;;;5070328;28;20430;-63
2020/12/30 04:24:24;;;;;;;20.02;15.32;;;2.70;99.90;;;;;;5070192;28;20407;-64
2020/12/30 04:26:50;;;;;;;23.08;15.90;;;2.70;99.90;;;;;;5070511;28;20426;-64
2020/12/30 04:29:16;;;;;;;20.70;15.55;;;2.70;99.90;;;;;;5070690;28;20416;-63
2020/12/30 04:31:42;;;;;;;21.98;15.77;;;2.70;99.90;;;;;;5070642;28;20473;-64
2020/12/30 04:34:08;;;;;;;18.75;15.75;;;2.70;99.90;;;;;;5070188;28;20446;-64
2020/12/30 04:36:34;;;;;;;21.08;15.48;;;2.80;99.90;;;;;;5071895;28;20423;-64
2020/12/30 04:39:00;;;;;;;23.00;15.98;;;2.80;99.90;;;;;;5074986;28;20419;-64
2020/12/30 04:41:31;;;;;;;22.15;14.77;;;2.80;99.90;;;;;;5074461;28;20461;-64
2020/12/30 04:43:59;;;;;;;22.40;15.55;;;2.80;99.90;;;;;;5074281;28;20415;-64
2020/12/30 04:46:27;;;;;;;20.60;15.05;;;2.90;99.90;;;;;;5074412;28;20403;-64
2020/12/30 04:48:53;;;;;;;17.43;14.57;;;2.90;99.90;;;;;;5078526;28;20418;-64
2020/12/30 04:51:21;;;;;;;18.70;14.40;;;2.90;99.90;;;;;;5094937;28;20846;-63
2020/12/30 04:53:50;;;;;;;23.45;15.90;;;2.90;99.90;;;;;;5094102;28;20421;-63
2020/12/30 04:56:16;;;;;;;23.40;16.55;;;2.80;99.90;;;;;;5094810;28;20410;-64
2020/12/30 04:58:45;;;;;;;20.23;14.23;;;2.80;99.90;;;;;;5094533;28;20531;-64
2020/12/30 05:01:15;;;;;;;20.98;14.80;;;2.80;99.90;;;;;;5094569;28;20409;-63
2020/12/30 05:03:46;;;;;;;21.87;14.43;;;2.80;99.90;;;;;;5094145;28;20413;-63
2020/12/30 05:06:15;;;;;;;18.83;14.32;;;2.70;99.90;;;;;;5093985;28;20414;-63
2020/12/30 05:08:41;;;;;;;21.65;15.48;;;2.70;99.90;;;;;;5094460;28;20409;-64
2020/12/30 05:11:07;;;;;;;20.20;15.20;;;2.70;99.90;;;;;;5094542;28;20440;-64
2020/12/30 05:13:33;;;;;;;21.83;15.65;;;2.60;99.90;;;;;;5094086;28;20939;-64
2020/12/30 05:16:00;;;;;;;22.38;15.30;;;2.50;99.90;;;;;;5093796;28;20445;-64
2020/12/30 05:18:26;;;;;;;22.95;16.92;;;2.50;99.90;;;;;;5093875;28;21151;-64
2020/12/30 05:20:52;;;;;;;21.80;15.55;;;2.60;99.90;;;;;;5093982;28;20405;-63
2020/12/30 05:23:19;;;;;;;21.35;16.55;;;2.50;99.90;;;;;;5093932;28;20406;-63
2020/12/30 05:25:45;;;;;;;22.60;16.30;;;2.50;99.90;;;;;;5093896;28;21035;-64
2020/12/30 05:28:12;;;;;;;21.27;15.40;;;2.60;99.90;;;;;;5094048;28;20506;-64
2020/12/30 05:30:41;;;;;;;22.75;16.17;;;2.60;99.90;;;;;;5093666;28;20419;-64
2020/12/30 05:33:08;;;;;;;22.52;15.88;;;2.60;99.90;;;;;;5093683;28;20418;-64
2020/12/30 05:35:35;;;;;;;22.05;15.68;;;2.70;99.90;;;;;;5092893;28;20410;-64
2020/12/30 05:38:02;;;;;;;21.58;16.35;;;2.60;99.90;;;;;;5093747;28;20507;-64
2020/12/30 05:40:30;;;;;;;20.37;15.57;;;2.60;99.90;;;;;;5093678;28;20463;-64
2020/12/30 05:43:09;;;;;;;18.38;15.57;;;2.60;99.90;;;;;;5093481;28;20824;-64
2020/12/30 05:45:44;;;;;;;22.40;16.27;;;2.60;99.90;;;;;;5093809;28;20412;-63
2020/12/30 05:48:12;;;;;;;23.67;16.23;;;2.60;99.90;;;;;;5092913;28;20878;-64
2020/12/30 05:50:47;;;;;;;22.05;16.27;;;2.60;99.90;;;;;;5093486;28;20410;-63
2020/12/30 05:53:14;;;;;;;25.03;15.90;;;2.60;99.90;;;;;;5093480;28;20489;-64
2020/12/30 05:55:40;;;;;;;23.67;15.85;;;2.60;99.90;;;;;;5092985;28;20410;-63
2020/12/30 05:58:08;;;;;;;22.55;16.45;;;2.70;99.90;;;;;;5093127;28;20483;-64
2020/12/30 06:00:34;;;;;;;24.38;16.63;;;2.60;99.90;;;;;;5093124;28;20413;-63
2020/12/30 06:03:00;;;;;;;24.63;16.80;;;2.60;99.90;;;;;;5093275;28;20410;-64
2020/12/30 06:05:28;;;;;;;24.20;17.00;;;2.60;99.90;;;;;;5092851;28;20897;-64
2020/12/30 06:07:55;;;;;;;24.00;18.02;;;2.60;99.90;;;;;;5093044;28;20406;-64
2020/12/30 06:10:22;;;;;;;24.63;17.10;;;2.70;99.90;;;;;;5092939;28;20897;-64
2020/12/30 06:12:53;;;;;;;22.23;16.80;;;2.80;99.90;;;;;;5093212;28;20405;-64
2020/12/30 06:15:21;;;;;;;24.05;16.13;;;2.80;99.90;;;;;;5093342;28;20417;-64
2020/12/30 06:17:55;;;;;;;22.63;15.30;;;2.90;99.90;;;;;;5093158;28;20704;-64
2020/12/30 06:20:24;;;;;;;23.17;16.90;;;2.90;99.90;;;;;;5093238;28;20417;-64
2020/12/30 06:22:58;;;;;;;23.60;15.73;;;2.90;99.90;;;;;;5093067;28;20801;-64
2020/12/30 06:25:27;;;;;;;22.35;16.23;;;2.90;99.90;;;;;;5092194;28;20471;-64
2020/12/30 06:27:54;;;;;;;22.90;15.63;;;2.90;99.90;;;;;;5092780;28;20774;-63
2020/12/30 06:30:22;;;;;;;25.65;16.60;;;2.90;99.90;;;;;;5092555;28;20410;-64
2020/12/30 06:32:48;;;;;;;24.23;16.75;;;3.00;99.90;;;;;;5092738;28;20414;-64
2020/12/30 06:35:25;;;;;;;24.15;15.55;;;3.00;99.90;;;;;;5092429;28;20410;-64
2020/12/30 06:37:51;;;;;;;21.65;16.33;;;3.10;99.90;;;;;;5092420;28;20429;-64
2020/12/30 06:40:27;;;;;;;24.38;14.30;;;3.10;99.90;;;;;;5092822;28;20782;-63
2020/12/30 06:42:57;;;;;;;22.25;15.68;;;3.10;99.90;;;;;;5092375;28;20414;-64
2020/12/30 06:45:50;;;;;;;18.40;14.07;;;3.10;99.90;;;;;;5092251;28;20413;-64
2020/12/30 06:48:17;;;;;;;20.90;14.85;;;3.20;99.90;;;;;;5091982;28;20413;-64
2020/12/30 06:50:43;;;;;;;20.70;15.80;;;3.20;99.90;;;;;;5092296;28;20820;-64
2020/12/30 06:53:26;;;;;;;20.88;14.40;;;3.30;99.90;;;;;;5092466;28;20414;-64
2020/12/30 06:55:53;;;;;;;17.77;14.00;;;3.30;99.90;;;;;;5091561;28;20879;-64
2020/12/30 06:58:42;;;;;;;20.30;15.02;;;3.30;99.90;;;;;;5092043;28;20418;-64
2020/12/30 07:01:08;;;;;;;19.63;13.73;;;3.30;99.90;;;;;;5092009;28;20458;-64
2020/12/30 07:03:34;;;;;;;19.63;14.40;;;3.40;99.90;;;;;;5092062;28;20429;-64
2020/12/30 07:06:25;;;;;;;20.30;13.85;;;3.40;99.90;;;;;;5091857;28;20402;-64
2020/12/30 07:08:52;;;;;;;17.63;13.95;;;3.40;99.90;;;;;;5071657;28;20396;-64
2020/12/30 07:11:44;;;;;;;18.40;13.90;;;3.40;99.90;;;;;;5071473;28;20473;-64
2020/12/30 07:14:12;;;;;;;17.77;14.80;;;3.30;99.90;;;;;;5071202;28;20780;-64
2020/12/30 07:16:39;;;;;;;18.83;14.02;;;3.30;99.90;;;;;;5071497;28;20800;-65
2020/12/30 07:19:13;;;;;;;20.15;15.32;;;3.40;99.90;;;;;;5071345;28;20415;-64
2020/12/30 07:21:59;;;;;;;19.65;14.15;;;3.30;99.90;;;;;;5071450;28;20423;-64
2020/12/30 07:24:27;;;;;;;21.10;13.93;;;3.30;99.90;;;;;;5072100;28;20411;-63
2020/12/30 07:26:57;;;;;;;21.75;13.75;;;3.40;99.90;;;;;;5072708;28;20438;-63
2020/12/30 07:29:23;;;;;;;19.70;13.82;;;3.30;99.90;;;;;;5073754;28;20416;-64
2020/12/30 07:31:52;;;;;;;17.83;13.70;;;3.40;99.90;;;;;;5073367;28;20412;-64
2020/12/30 07:34:23;;;;;;;21.42;14.13;;;3.30;99.90;;;;;;5072510;28;20822;-63
2020/12/30 07:36:49;;;;;;;16.75;13.45;;;3.40;99.90;;;;;;5085490;28;20422;-63
2020/12/30 07:39:21;;;;;;;20.48;14.90;;;3.30;99.90;;;;;;5093123;28;20406;-63
2020/12/30 07:41:47;;;;;;;17.50;13.70;;;3.30;99.90;;;;;;5091548;28;20410;-64
2020/12/30 07:44:14;;;;;;;18.75;13.88;;;3.40;99.90;;;;;;5090976;28;20406;-63
2020/12/30 07:46:42;;;;;;;20.53;14.60;;;3.40;99.90;;;;;;5091350;28;20431;-63
2020/12/30 07:49:10;;;;;;;20.55;15.20;;;3.40;99.90;;;;;;5090797;28;20429;-64
2020/12/30 07:51:36;;;;;;;20.20;14.57;;;3.40;99.90;;;;;;5091358;28;20421;-63
2020/12/30 07:54:02;;;;;;;19.45;14.60;;;3.40;99.90;;;;;;5090858;28;20410;-64
2020/12/30 07:56:28;;;;;;;21.13;15.48;;;3.40;99.90;;;;;;5090843;28;20416;-63
2020/12/30 07:58:55;;;;;;;22.03;15.63;;;3.50;99.90;;;;;;5091187;28;20405;-63
2020/12/30 08:01:21;;;;;;;21.15;15.15;;;3.50;99.90;;;;;;5090520;28;20410;-63
2020/12/30 08:03:48;;;;;;;21.43;16.60;;;3.50;99.90;;;;;;5090958;28;20425;-64
2020/12/30 08:06:15;;;;;;;20.92;15.00;;;3.50;99.90;;;;;;5090565;28;20414;-63
2020/12/30 08:08:43;;;;;;;20.98;15.10;;;3.40;99.90;;;;;;5081024;28;20421;-63
2020/12/30 08:11:09;;;;;;;21.20;15.10;;;3.40;99.90;;;;;;5069706;28;20415;-63
2020/12/30 08:13:38;;;;;;;19.48;15.20;;;3.40;99.90;;;;;;5070103;28;20438;-64
2020/12/30 08:16:04;;;;;;;23.70;15.77;;;3.50;99.90;;;;;;5070330;28;20762;-63
2020/12/30 08:18:31;;;;;;;20.37;15.07;;;3.50;99.90;;;;;;5070542;28;20419;-63
2020/12/30 08:20:58;;;;;;;21.00;14.98;;;3.40;99.90;;;;;;5070036;28;20776;-64
2020/12/30 08:23:24;;;;;;;21.33;15.30;;;3.50;99.90;;;;;;5070104;28;20848;-63
2020/12/30 08:25:50;;;;;;;19.30;13.95;;;3.50;99.90;;;;;;5069646;28;20408;-63
2020/12/30 08:28:16;;;;;;;22.23;15.20;;;3.50;92.10;;;;;;5069772;28;20408;-64
2020/12/30 08:30:43;;;;;;;19.05;14.25;;;3.50;63.00;;;;;;5070300;28;20411;-63
2020/12/30 08:33:11;;;;;;;21.25;14.07;;;3.50;62.40;;;;;;5070650;28;20788;-63
2020/12/30 08:35:45;;;;;;;19.93;14.03;;;3.50;52.20;;;;;;5070830;28;20423;-63
2020/12/30 08:38:13;;;;;;;17.40;13.82;;;3.50;40.40;;;;;;5070061;28;20423;-63
2020/12/30 08:40:41;;;;;;;21.63;14.87;;;3.60;28.50;;;;;;5070204;28;20470;-65
2020/12/30 08:43:32;;;;;;;19.75;14.15;;;3.60;1.00;;;;;;5070745;28;20437;-65
2020/12/30 08:46:10;;;;;;;19.17;14.35;;;3.60;1.00;;;;;;5069807;28;20498;-65
2020/12/30 08:48:46;;;;;;;18.70;14.73;;;3.50;1.00;;;;;;5070153;28;20411;-64
2020/12/30 08:51:26;;;;;;;21.98;15.02;;;3.60;1.00;;;;;;5069874;28;20472;-64
2020/12/30 08:53:53;;;;;;;19.50;13.97;;;3.60;1.00;;;;;;5070465;28;20465;-64
2020/12/30 08:56:19;;;;;;;19.50;13.95;;;3.60;1.00;;;;;;5069910;28;20809;-64
2020/12/30 08:58:51;;;;;;;19.55;13.80;;;3.60;1.00;;;;;;5069927;28;20431;-64
2020/12/30 09:01:21;;;;;;;17.60;13.10;;;3.60;1.00;;;;;;5070278;28;20403;-64
2020/12/30 09:03:48;;;;;;;17.77;13.55;;;3.70;1.00;;;;;;5069662;28;20415;-64
2020/12/30 09:06:29;;;;;;;19.33;13.73;;;3.70;1.00;;;;;;5069888;28;20484;-64
2020/12/30 09:08:55;;;;;;;21.38;14.35;;;3.70;1.00;;;;;;5069781;28;20776;-65
2020/12/30 09:11:22;;;;;;;19.70;14.23;;;3.70;1.00;;;;;;5070048;28;20855;-63
2020/12/30 09:13:48;;;;;;;18.70;12.85;;;3.80;1.00;;;;;;5070058;28;20411;-64
2020/12/30 09:16:14;;;;;;;19.90;13.35;;;3.80;1.00;;;;;;5069330;28;20416;-61
2020/12/30 09:18:40;;;;;;;19.77;13.30;;;3.90;1.00;;;;;;5070078;28;20430;-62
2020/12/30 09:21:25;;;;;;;20.08;14.38;;;3.90;1.00;;;;;;5070590;28;20419;-64
2020/12/30 09:23:52;;;;;;;18.52;12.82;;;3.90;1.00;;;;;;5072040;28;20485;-63
2020/12/30 09:26:27;;;;;;;21.48;14.20;;;3.90;1.00;;;;;;5073500;28;20518;-64
2020/12/30 09:28:54;;;;;;;16.80;12.93;;;4.00;1.00;;;;;;5073277;28;20417;-64
2020/12/30 09:31:20;;;;;;;18.88;13.25;;;3.90;1.00;;;;;;5073545;28;20761;-64
2020/12/30 09:33:46;;;;;;;18.10;14.23;;;4.00;1.00;;;;;;5073556;28;20476;-65
2020/12/30 09:36:12;;;;;;;17.30;12.50;;;4.00;1.00;;;;;;5073170;28;20497;-65
2020/12/30 09:38:38;;;;;;;20.13;13.43;;;4.00;1.00;;;;;;5073076;28;20514;-65
2020/12/30 09:41:13;;;;;;;21.92;13.73;;;4.10;1.00;;;;;;5072849;28;20411;-65
2020/12/30 09:43:44;;;;;;;16.35;13.07;;;4.20;1.00;;;;;;5073316;28;20793;-65
2020/12/30 09:46:11;;;;;;;20.83;14.98;;;4.20;1.00;;;;;;5072753;28;20419;-65
2020/12/30 09:48:37;;;;;;;18.33;13.40;;;4.10;1.00;;;;;;5073095;28;20838;-65
2020/12/30 09:51:04;;;;;;;20.02;14.63;;;4.10;1.00;;;;;;5073244;28;20430;-65
2020/12/30 09:53:30;;;;;;;20.65;14.57;;;4.10;1.00;;;;;;5072862;28;20498;-65
2020/12/30 09:55:56;;;;;;;18.35;12.95;;;4.10;1.00;;;;;;5072940;28;20416;-65
2020/12/30 09:58:23;;;;;;;17.48;14.13;;;4.20;1.00;;;;;;5072689;28;20916;-65
2020/12/30 10:00:49;;;;;;;23.10;14.95;;;4.10;1.00;;;;;;5072744;28;20407;-65
2020/12/30 10:03:15;;;;;;;20.27;14.45;;;4.10;1.00;;;;;;5072800;28;20461;-65
2020/12/30 10:05:41;;;;;;;19.20;14.00;;;4.10;1.00;;;;;;5072489;28;20408;-65
2020/12/30 10:08:07;;;;;;;22.02;15.27;;;4.20;1.00;;;;;;5072340;28;20411;-65
2020/12/30 10:10:33;;;;;;;22.45;15.80;;;4.00;1.00;;;;;;5072886;28;20419;-65
2020/12/30 10:12:59;;;;;;;24.27;16.60;;;4.00;1.00;;;;;;5072660;28;20496;-65
2020/12/30 10:15:28;;;;;;;23.63;16.67;;;3.90;1.00;;;;;;5072653;28;20783;-66
2020/12/30 10:17:54;;;;;;;23.45;16.33;;;3.90;10.00;;;;;;5072294;28;20457;-65
2020/12/30 10:20:20;;;;;;;22.65;16.13;;;3.90;27.80;;;;;;5072622;28;20473;-65
2020/12/30 10:22:47;;;;;;;21.98;16.20;;;3.90;44.00;;;;;;5072417;28;20884;-65
2020/12/30 10:25:14;;;;;;;21.92;16.63;;;4.00;35.50;;;;;;5072117;28;20427;-65
2020/12/30 10:27:40;;;;;;;21.48;15.00;;;3.90;44.80;;;;;;5072289;28;20412;-66
2020/12/30 10:30:07;;;;;;;20.27;14.98;;;4.00;46.20;;;;;;5072002;28;21081;-65
2020/12/30 10:32:34;;;;;;;21.55;15.63;;;3.90;54.50;;;;;;5072214;28;20422;-65
2020/12/30 10:35:01;;;;;;;23.77;16.52;;;3.90;70.50;;;;;;5071688;28;20419;-65
2020/12/30 10:37:27;;;;;;;21.73;16.65;;;3.80;76.10;;;;;;5071389;28;20432;-63
2020/12/30 10:39:53;;;;;;;25.85;16.80;;;3.70;99.90;;;;;;5072166;28;20533;-64
2020/12/30 10:42:19;;;;;;;23.50;16.63;;;3.70;99.90;;;;;;5071950;28;20415;-65
2020/12/30 10:44:45;;;;;;;24.33;16.33;;;3.80;99.90;;;;;;5071994;28;20419;-65
2020/12/30 10:47:12;;;;;;;23.25;16.50;;;3.80;99.90;;;;;;5072317;28;20837;-64
2020/12/30 10:49:39;;;;;;;27.58;17.30;;;3.80;99.90;;;;;;5071462;28;20412;-62
2020/12/30 10:52:07;;;;;;;25.90;17.63;;;3.80;99.90;;;;;;5071634;28;20408;-65
2020/12/30 10:54:33;;;;;;;24.75;16.35;;;3.90;99.90;;;;;;5071596;28;20411;-64
2020/12/30 10:56:59;;;;;;;23.83;16.17;;;4.00;99.90;;;;;;5071957;28;20430;-65
2020/12/30 10:59:25;;;;;;;25.77;17.57;;;3.80;99.90;;;;;;5071776;28;20517;-66
2020/12/30 11:01:52;;;;;;;26.65;18.45;;;3.80;99.90;;;;;;5071502;28;20412;-66
2020/12/30 11:04:19;;;;;;;25.98;17.70;;;3.80;99.90;;;;;;5071893;28;20415;-65
2020/12/30 11:06:46;;;;;;;24.65;17.10;;;3.90;99.90;;;;;;5072312;28;20415;-65
2020/12/30 11:09:13;;;;;;;26.08;17.55;;;3.90;99.90;;;;;;5071352;28;20419;-67
2020/12/30 11:11:40;;;;;;;24.73;17.25;;;4.00;99.90;;;;;;5071743;28;20416;-66
2020/12/30 11:14:07;;;;;;;26.40;17.40;;;4.00;99.90;;;;;;5071204;28;20776;-61
2020/12/30 11:16:33;;;;;;;26.27;17.45;;;4.10;99.90;;;;;;5071399;28;20417;-64
2020/12/30 11:18:59;;;;;;;25.17;16.92;;;4.20;99.90;;;;;;5071194;28;20815;-66
2020/12/30 11:21:25;;;;;;;25.35;17.50;;;4.30;99.90;;;;;;5071651;28;20435;-65
2020/12/30 11:23:52;;;;;;;24.05;17.80;;;4.30;99.90;;;;;;5071875;28;20408;-66
2020/12/30 11:26:18;;;;;;;24.85;17.33;;;4.40;99.90;;;;;;5071644;28;20776;-66
2020/12/30 11:28:44;;;;;;;27.27;17.65;;;4.40;99.90;;;;;;5071068;28;20416;-64
2020/12/30 11:31:13;;;;;;;22.20;16.13;;;4.50;99.90;;;;;;5071672;28;20418;-67
2020/12/30 11:33:39;;;;;;;26.33;17.27;;;4.40;99.90;;;;;;5071102;28;20445;-64
2020/12/30 11:36:05;;;;;;;25.67;16.97;;;4.50;99.90;;;;;;5071243;28;20422;-65
2020/12/30 11:38:31;;;;;;;24.70;16.65;;;4.50;99.90;;;;;;5070918;28;20423;-67
2020/12/30 11:40:58;;;;;;;20.90;16.10;;;4.50;99.90;;;;;;5071417;28;20423;-67
2020/12/30 11:43:24;;;;;;;23.48;17.25;;;4.60;99.90;;;;;;5071093;28;20784;-67
2020/12/30 11:45:50;;;;;;;22.35;16.58;;;4.60;99.90;;;;;;5071997;28;20411;-67
2020/12/30 11:48:17;;;;;;;21.50;15.17;;;4.70;99.90;;;;;;5070633;28;20404;-67
2020/12/30 11:50:43;;;;;;;22.52;16.85;;;4.60;99.90;;;;;;5070881;28;20415;-67
2020/12/30 11:53:10;;;;;;;25.33;16.85;;;4.70;99.90;;;;;;5071108;28;20418;-66
2020/12/30 11:55:36;;;;;;;22.48;16.20;;;4.70;99.90;;;;;;5070706;28;20537;-66
2020/12/30 11:58:03;;;;;;;21.70;15.65;;;4.70;99.90;;;;;;5070727;28;20430;-67
2020/12/30 12:00:29;;;;;;;23.70;17.17;;;4.60;99.90;;;;;;5070694;28;20416;-66
2020/12/30 12:02:55;;;;;;;25.27;16.67;;;4.60;94.50;;;;;;5070070;28;20903;-67
2020/12/30 12:05:22;;;;;;;21.50;16.10;;;4.60;98.30;;;;;;5070272;28;21315;-66
2020/12/30 12:07:49;;;;;;;23.90;16.40;;;4.50;99.90;;;;;;5071067;28;20411;-67
2020/12/30 12:10:15;;;;;;;23.35;17.17;;;4.40;99.90;;;;;;5070355;28;20411;-68
2020/12/30 12:12:41;;;;;;;23.77;17.17;;;4.40;99.90;;;;;;5082322;28;20413;-68
2020/12/30 12:15:08;;;;;;;23.50;16.08;;;4.40;99.90;;;;;;5089725;28;20422;-63
2020/12/30 12:17:34;;;;;;;25.80;17.00;;;4.40;99.90;;;;;;5089872;28;20894;-64
2020/12/30 12:20:01;;;;;;;24.38;17.50;;;4.40;99.90;;;;;;5090565;28;20414;-64
2020/12/30 12:22:27;;;;;;;22.85;16.70;;;4.50;99.90;;;;;;5090236;28;20830;-64
2020/12/30 12:24:53;;;;;;;23.52;17.15;;;4.40;99.90;;;;;;5090257;28;20890;-64
2020/12/30 12:27:19;;;;;;;22.63;16.45;;;4.40;99.90;;;;;;5090146;28;20414;-66
2020/12/30 12:29:50;;;;;;;22.77;16.92;;;4.40;99.90;;;;;;5090374;28;20790;-64
2020/12/30 12:32:19;;;;;;;24.42;15.93;;;4.50;99.90;;;;;;5090644;28;20443;-63
2020/12/30 12:34:48;;;;;;;23.73;15.80;;;4.50;99.90;;;;;;5090638;28;20420;-64
2020/12/30 12:37:16;;;;;;;25.42;17.15;;;4.60;99.90;;;;;;5090467;28;20502;-63
2020/12/30 12:39:44;;;;;;;22.80;16.67;;;4.60;99.90;;;;;;5089982;28;20756;-63
2020/12/30 12:42:11;;;;;;;21.23;16.30;;;4.60;99.90;;;;;;5090551;28;20417;-63